Terminal Aerodrome Forecast
Issued by NWS Shreveport, LA

Home | Current Version | Previous Version | Text Only | Print | Product List | Glossary On
Versions: 1 2 3 4 5 6 7 8 9 10 11 12 13 14 15 16 17 18 19 20 21
000
FTUS44 KSHV 301729
TAFTYR
TAF
KTYR 301729Z 3018/3118 VRB05KT P6SM VCTS SCT040CB BKN150 OVC250
     FM310000 17004KT P6SM SCT050 SCT250
      TEMPO 3110/3113 5SM BR SCT007
     FM311500 18007KT P6SM SCT030 SCT150 SCT250=

USA.gov is the U.S. government's official web portal to all federal, state and local government web resources and services.